PWSweather.com
Personal Weather Stations
Station Observations
K4FB1
Clubhouse Heritage, Lakeland, FL 33812

Clubhouse HeritageLakeland, FL 33812

Lat: 27.969224, Lon: -81.897769

Elevation: 145

Station Type: Davis Vantage Pro2

http://www.ClubhouseWX.com

High Low Average
Temperature 97.8°F36.6°C 73.7°F23.2°C 83.3°F28.5°C
Dew Point 76.3°F24.6°C -30.4°F-34.7°C 21.8°F-5.7°C
Winds 6.0 mph 9.7 kmh Calm Calm 2.0 mph E3.2 kmh E
Wind Gusts 13.0 mph20.9 kmh -- 6.0 mph9.7 kmh
Humidity 64% 0% 27%
Pressure 30.14 in1020.7 mb 30.05 in1017.6 mb -
Precipitation 0.00 in0.0 mm - -
Hour Temp Dew Point Humidity Winds Wind Gusts Pressure Precip Precip Rate Daily Precip Total
12:00 AM 77.2°F25.1°C -30.1°F-34.5°C 0% 2.0 mph SE3.2 kmh SE 4.0 mph6.4 kmh 30.11 in1019.6 mb 0.00 in0.0 mm 0.00 in0.0 mm 0.00 in0.0 mm
12:05 AM 77.1°F25.1°C -30.1°F-34.5°C 0% 1.0 mph SE1.6 kmh SE 3.0 mph4.8 kmh 30.11 in1019.6 mb 0.00 in0.0 mm 0.00 in0.0 mm 0.00 in0.0 mm
12:10 AM 77.1°F25.1°C -30.1°F-34.5°C 0% 2.0 mph SE3.2 kmh SE 5.0 mph8.0 kmh 30.10 in1019.3 mb 0.00 in0.0 mm 0.00 in0.0 mm 0.00 in0.0 mm
12:15 AM 77.0°F25.0°C -30.1°F-34.5°C 0% 2.0 mph SE3.2 kmh SE 5.0 mph8.0 kmh 30.10 in1019.3 mb 0.00 in0.0 mm 0.00 in0.0 mm 0.00 in0.0 mm
12:20 AM 77.0°F25.0°C -30.1°F-34.5°C 0% 2.0 mph SE3.2 kmh SE 5.0 mph8.0 kmh 30.10 in1019.3 mb 0.00 in0.0 mm 0.00 in0.0 mm 0.00 in0.0 mm
12:25 AM 76.9°F24.9°C -30.1°F-34.5°C 0% 2.0 mph SE3.2 kmh SE 4.0 mph6.4 kmh 30.10 in1019.3 mb 0.00 in0.0 mm 0.00 in0.0 mm 0.00 in0.0 mm
12:30 AM 76.9°F24.9°C -30.1°F-34.5°C 0% 2.0 mph SE3.2 kmh SE 5.0 mph8.0 kmh 30.11 in1019.6 mb 0.00 in0.0 mm 0.00 in0.0 mm 0.00 in0.0 mm
12:35 AM 76.8°F24.9°C -30.1°F-34.5°C 0% 3.0 mph SE4.8 kmh SE 5.0 mph8.0 kmh 30.10 in1019.3 mb 0.00 in0.0 mm 0.00 in0.0 mm 0.00 in0.0 mm
12:40 AM 76.8°F24.9°C -30.1°F-34.5°C 0% 3.0 mph SE4.8 kmh SE 5.0 mph8.0 kmh 30.10 in1019.3 mb 0.00 in0.0 mm 0.00 in0.0 mm 0.00 in0.0 mm
12:45 AM 76.7°F24.8°C -30.1°F-34.5°C 0% 2.0 mph SE3.2 kmh SE 4.0 mph6.4 kmh 30.10 in1019.3 mb 0.00 in0.0 mm 0.00 in0.0 mm 0.00 in0.0 mm
12:50 AM 76.6°F24.8°C -30.1°F-34.5°C 0% 2.0 mph SE3.2 kmh SE 4.0 mph6.4 kmh 30.10 in1019.3 mb 0.00 in0.0 mm 0.00 in0.0 mm 0.00 in0.0 mm
12:55 AM 76.6°F24.8°C -30.1°F-34.5°C 0% 1.0 mph SE1.6 kmh SE 4.0 mph6.4 kmh 30.10 in1019.3 mb 0.00 in0.0 mm 0.00 in0.0 mm 0.00 in0.0 mm
01:00 AM 76.5°F24.7°C -30.1°F-34.5°C 0% 2.0 mph SE3.2 kmh SE 4.0 mph6.4 kmh 30.10 in1019.3 mb 0.00 in0.0 mm 0.00 in0.0 mm 0.00 in0.0 mm
01:05 AM 76.5°F24.7°C -30.1°F-34.5°C 0% 2.0 mph SE3.2 kmh SE 4.0 mph6.4 kmh 30.10 in1019.3 mb 0.00 in0.0 mm 0.00 in0.0 mm 0.00 in0.0 mm
01:10 AM 76.4°F24.7°C -30.1°F-34.5°C 0% 1.0 mph SE1.6 kmh SE 3.0 mph4.8 kmh 30.10 in1019.3 mb 0.00 in0.0 mm 0.00 in0.0 mm 0.00 in0.0 mm
01:15 AM 76.2°F24.6°C -30.1°F-34.5°C 0% 1.0 mph SE1.6 kmh SE 2.0 mph3.2 kmh 30.10 in1019.3 mb 0.00 in0.0 mm 0.00 in0.0 mm 0.00 in0.0 mm
01:20 AM 76.0°F24.4°C -30.1°F-34.5°C 0% Calm Calm 1.0 mph1.6 kmh 30.10 in1019.3 mb 0.00 in0.0 mm 0.00 in0.0 mm 0.00 in0.0 mm
01:25 AM 75.8°F24.3°C -30.1°F-34.5°C 0% Calm Calm 1.0 mph1.6 kmh 30.09 in1019.0 mb 0.00 in0.0 mm 0.00 in0.0 mm 0.00 in0.0 mm
01:30 AM 75.6°F24.2°C -30.1°F-34.5°C 0% Calm Calm 2.0 mph3.2 kmh 30.10 in1019.3 mb 0.00 in0.0 mm 0.00 in0.0 mm 0.00 in0.0 mm
01:35 AM 75.5°F24.2°C -30.1°F-34.5°C 0% 1.0 mph SE1.6 kmh SE 2.0 mph3.2 kmh 30.09 in1019.0 mb 0.00 in0.0 mm 0.00 in0.0 mm 0.00 in0.0 mm
01:40 AM 75.3°F24.1°C -30.1°F-34.5°C 0% Calm Calm 1.0 mph1.6 kmh 30.10 in1019.3 mb 0.00 in0.0 mm 0.00 in0.0 mm 0.00 in0.0 mm
01:45 AM 75.1°F23.9°C -30.1°F-34.5°C 0% Calm Calm 1.0 mph1.6 kmh 30.09 in1019.0 mb 0.00 in0.0 mm 0.00 in0.0 mm 0.00 in0.0 mm
01:50 AM 74.9°F23.8°C -30.1°F-34.5°C 0% Calm Calm -- 30.09 in1019.0 mb 0.00 in0.0 mm 0.00 in0.0 mm 0.00 in0.0 mm
01:55 AM 74.8°F23.8°C -30.1°F-34.5°C 0% Calm Calm -- 30.09 in1019.0 mb 0.00 in0.0 mm 0.00 in0.0 mm 0.00 in0.0 mm
02:00 AM 74.6°F23.7°C -30.1°F-34.5°C 0% Calm Calm 1.0 mph1.6 kmh 30.09 in1019.0 mb 0.00 in0.0 mm 0.00 in0.0 mm 0.00 in0.0 mm
02:05 AM 74.4°F23.6°C -30.1°F-34.5°C 0% Calm Calm 1.0 mph1.6 kmh 30.09 in1019.0 mb 0.00 in0.0 mm 0.00 in0.0 mm 0.00 in0.0 mm
02:10 AM 74.2°F23.4°C -30.1°F-34.5°C 0% Calm Calm -- 30.09 in1019.0 mb 0.00 in0.0 mm 0.00 in0.0 mm 0.00 in0.0 mm
02:15 AM 74.2°F23.4°C -30.1°F-34.5°C 0% Calm Calm -- 30.09 in1019.0 mb 0.00 in0.0 mm 0.00 in0.0 mm 0.00 in0.0 mm
02:20 AM 74.1°F23.4°C -30.1°F-34.5°C 0% Calm Calm -- 30.09 in1019.0 mb 0.00 in0.0 mm 0.00 in0.0 mm 0.00 in0.0 mm
02:25 AM 74.0°F23.3°C -30.1°F-34.5°C 0% Calm Calm 1.0 mph1.6 kmh 30.09 in1019.0 mb 0.00 in0.0 mm 0.00 in0.0 mm 0.00 in0.0 mm
02:30 AM 73.8°F23.2°C -30.1°F-34.5°C 0% Calm Calm 1.0 mph1.6 kmh 30.09 in1019.0 mb 0.00 in0.0 mm 0.00 in0.0 mm 0.00 in0.0 mm
02:35 AM 73.7°F23.2°C -30.1°F-34.5°C 0% Calm Calm 1.0 mph1.6 kmh 30.09 in1019.0 mb 0.00 in0.0 mm 0.00 in0.0 mm 0.00 in0.0 mm
02:40 AM 73.8°F23.2°C -30.1°F-34.5°C 0% Calm Calm 2.0 mph3.2 kmh 30.09 in1019.0 mb 0.00 in0.0 mm 0.00 in0.0 mm 0.00 in0.0 mm
02:45 AM 74.0°F23.3°C -30.1°F-34.5°C 0% 1.0 mph SE1.6 kmh SE 2.0 mph3.2 kmh 30.09 in1019.0 mb 0.00 in0.0 mm 0.00 in0.0 mm 0.00 in0.0 mm
02:50 AM 74.1°F23.4°C -30.1°F-34.5°C 0% Calm Calm 1.0 mph1.6 kmh 30.09 in1019.0 mb 0.00 in0.0 mm 0.00 in0.0 mm 0.00 in0.0 mm
02:55 AM 74.2°F23.4°C -30.1°F-34.5°C 0% Calm Calm 1.0 mph1.6 kmh 30.09 in1019.0 mb 0.00 in0.0 mm 0.00 in0.0 mm 0.00 in0.0 mm
03:00 AM 74.3°F23.5°C -30.1°F-34.5°C 0% Calm Calm 1.0 mph1.6 kmh 30.08 in1018.6 mb 0.00 in0.0 mm 0.00 in0.0 mm 0.00 in0.0 mm
03:05 AM 74.3°F23.5°C -30.1°F-34.5°C 0% Calm Calm 2.0 mph3.2 kmh 30.08 in1018.6 mb 0.00 in0.0 mm 0.00 in0.0 mm 0.00 in0.0 mm
03:10 AM 74.5°F23.6°C -30.1°F-34.5°C 0% Calm Calm 2.0 mph3.2 kmh 30.08 in1018.6 mb 0.00 in0.0 mm 0.00 in0.0 mm 0.00 in0.0 mm
03:15 AM 74.5°F23.6°C -30.1°F-34.5°C 0% Calm Calm 2.0 mph3.2 kmh 30.08 in1018.6 mb 0.00 in0.0 mm 0.00 in0.0 mm 0.00 in0.0 mm
03:20 AM 74.8°F23.8°C -30.1°F-34.5°C 0% 1.0 mph SE1.6 kmh SE 3.0 mph4.8 kmh 30.08 in1018.6 mb 0.00 in0.0 mm 0.00 in0.0 mm 0.00 in0.0 mm
03:25 AM 74.9°F23.8°C -30.1°F-34.5°C 0% 2.0 mph SE3.2 kmh SE 3.0 mph4.8 kmh 30.08 in1018.6 mb 0.00 in0.0 mm 0.00 in0.0 mm 0.00 in0.0 mm
03:30 AM 74.9°F23.8°C -30.1°F-34.5°C 0% 2.0 mph SE3.2 kmh SE 5.0 mph8.0 kmh 30.07 in1018.3 mb 0.00 in0.0 mm 0.00 in0.0 mm 0.00 in0.0 mm
03:35 AM 75.0°F23.9°C -30.1°F-34.5°C 0% 2.0 mph SE3.2 kmh SE 5.0 mph8.0 kmh 30.07 in1018.3 mb 0.00 in0.0 mm 0.00 in0.0 mm 0.00 in0.0 mm
03:40 AM 75.0°F23.9°C -30.1°F-34.5°C 0% 2.0 mph ESE3.2 kmh ESE 4.0 mph6.4 kmh 30.07 in1018.3 mb 0.00 in0.0 mm 0.00 in0.0 mm 0.00 in0.0 mm
03:45 AM 75.1°F23.9°C -30.1°F-34.5°C 0% 2.0 mph ESE3.2 kmh ESE 4.0 mph6.4 kmh 30.07 in1018.3 mb 0.00 in0.0 mm 0.00 in0.0 mm 0.00 in0.0 mm
03:50 AM 75.1°F23.9°C -30.1°F-34.5°C 0% 2.0 mph ESE3.2 kmh ESE 4.0 mph6.4 kmh 30.07 in1018.3 mb 0.00 in0.0 mm 0.00 in0.0 mm 0.00 in0.0 mm
03:55 AM 75.2°F24.0°C -30.1°F-34.5°C 0% 1.0 mph ESE1.6 kmh ESE 4.0 mph6.4 kmh 30.07 in1018.3 mb 0.00 in0.0 mm 0.00 in0.0 mm 0.00 in0.0 mm
04:00 AM 75.2°F24.0°C -30.1°F-34.5°C 0% 1.0 mph ESE1.6 kmh ESE 3.0 mph4.8 kmh 30.06 in1017.9 mb 0.00 in0.0 mm 0.00 in0.0 mm 0.00 in0.0 mm
04:05 AM 75.3°F24.1°C -30.1°F-34.5°C 0% 1.0 mph ESE1.6 kmh ESE 4.0 mph6.4 kmh 30.06 in1017.9 mb 0.00 in0.0 mm 0.00 in0.0 mm 0.00 in0.0 mm
04:10 AM 75.4°F24.1°C -30.1°F-34.5°C 0% 1.0 mph ESE1.6 kmh ESE 4.0 mph6.4 kmh 30.06 in1017.9 mb 0.00 in0.0 mm 0.00 in0.0 mm 0.00 in0.0 mm
04:15 AM 75.4°F24.1°C -30.1°F-34.5°C 0% 2.0 mph ESE3.2 kmh ESE 4.0 mph6.4 kmh 30.06 in1017.9 mb 0.00 in0.0 mm 0.00 in0.0 mm 0.00 in0.0 mm
04:20 AM 75.6°F24.2°C -30.1°F-34.5°C 0% 2.0 mph SE3.2 kmh SE 5.0 mph8.0 kmh 30.06 in1017.9 mb 0.00 in0.0 mm 0.00 in0.0 mm 0.00 in0.0 mm
04:25 AM 75.7°F24.3°C -30.1°F-34.5°C 0% 2.0 mph SE3.2 kmh SE 5.0 mph8.0 kmh 30.06 in1017.9 mb 0.00 in0.0 mm 0.00 in0.0 mm 0.00 in0.0 mm
04:30 AM 75.8°F24.3°C -30.1°F-34.5°C 0% 2.0 mph SE3.2 kmh SE 4.0 mph6.4 kmh 30.06 in1017.9 mb 0.00 in0.0 mm 0.00 in0.0 mm 0.00 in0.0 mm
04:35 AM 75.8°F24.3°C -30.1°F-34.5°C 0% 2.0 mph SE3.2 kmh SE 5.0 mph8.0 kmh 30.06 in1017.9 mb 0.00 in0.0 mm 0.00 in0.0 mm 0.00 in0.0 mm
04:40 AM 75.9°F24.4°C -30.1°F-34.5°C 0% 3.0 mph SE4.8 kmh SE 5.0 mph8.0 kmh 30.06 in1017.9 mb 0.00 in0.0 mm 0.00 in0.0 mm 0.00 in0.0 mm
04:45 AM 75.9°F24.4°C -30.1°F-34.5°C 0% 3.0 mph SE4.8 kmh SE 5.0 mph8.0 kmh 30.06 in1017.9 mb 0.00 in0.0 mm 0.00 in0.0 mm 0.00 in0.0 mm
04:50 AM 75.8°F24.3°C -30.1°F-34.5°C 0% 3.0 mph ESE4.8 kmh ESE 5.0 mph8.0 kmh 30.06 in1017.9 mb 0.00 in0.0 mm 0.00 in0.0 mm 0.00 in0.0 mm
04:55 AM 75.8°F24.3°C -30.1°F-34.5°C 0% 2.0 mph ESE3.2 kmh ESE 5.0 mph8.0 kmh 30.07 in1018.3 mb 0.00 in0.0 mm 0.00 in0.0 mm 0.00 in0.0 mm
05:00 AM 75.8°F24.3°C -30.1°F-34.5°C 0% 2.0 mph SE3.2 kmh SE 5.0 mph8.0 kmh 30.07 in1018.3 mb 0.00 in0.0 mm 0.00 in0.0 mm 0.00 in0.0 mm
05:05 AM 75.8°F24.3°C -30.1°F-34.5°C 0% 2.0 mph SE3.2 kmh SE 5.0 mph8.0 kmh 30.07 in1018.3 mb 0.00 in0.0 mm 0.00 in0.0 mm 0.00 in0.0 mm
05:10 AM 75.8°F24.3°C -30.1°F-34.5°C 0% 2.0 mph SE3.2 kmh SE 4.0 mph6.4 kmh 30.07 in1018.3 mb 0.00 in0.0 mm 0.00 in0.0 mm 0.00 in0.0 mm
05:15 AM 75.7°F24.3°C -30.1°F-34.5°C 0% 2.0 mph SE3.2 kmh SE 4.0 mph6.4 kmh 30.07 in1018.3 mb 0.00 in0.0 mm 0.00 in0.0 mm 0.00 in0.0 mm
05:20 AM 75.6°F24.2°C -30.1°F-34.5°C 0% 2.0 mph SE3.2 kmh SE 5.0 mph8.0 kmh 30.07 in1018.3 mb 0.00 in0.0 mm 0.00 in0.0 mm 0.00 in0.0 mm
05:25 AM 75.5°F24.2°C -30.1°F-34.5°C 0% 2.0 mph SE3.2 kmh SE 5.0 mph8.0 kmh 30.07 in1018.3 mb 0.00 in0.0 mm 0.00 in0.0 mm 0.00 in0.0 mm
05:30 AM 75.4°F24.1°C -30.1°F-34.5°C 0% 2.0 mph SE3.2 kmh SE 5.0 mph8.0 kmh 30.07 in1018.3 mb 0.00 in0.0 mm 0.00 in0.0 mm 0.00 in0.0 mm
05:35 AM 75.3°F24.1°C -30.1°F-34.5°C 0% 2.0 mph SE3.2 kmh SE 5.0 mph8.0 kmh 30.07 in1018.3 mb 0.00 in0.0 mm 0.00 in0.0 mm 0.00 in0.0 mm
05:40 AM 75.2°F24.0°C -30.1°F-34.5°C 0% 2.0 mph SE3.2 kmh SE 4.0 mph6.4 kmh 30.07 in1018.3 mb 0.00 in0.0 mm 0.00 in0.0 mm 0.00 in0.0 mm
05:45 AM 75.1°F23.9°C -30.1°F-34.5°C 0% 2.0 mph SE3.2 kmh SE 4.0 mph6.4 kmh 30.07 in1018.3 mb 0.00 in0.0 mm 0.00 in0.0 mm 0.00 in0.0 mm
05:50 AM 75.0°F23.9°C -30.1°F-34.5°C 0% 1.0 mph SE1.6 kmh SE 3.0 mph4.8 kmh 30.07 in1018.3 mb 0.00 in0.0 mm 0.00 in0.0 mm 0.00 in0.0 mm
05:55 AM 74.9°F23.8°C -30.1°F-34.5°C 0% 1.0 mph SE1.6 kmh SE 3.0 mph4.8 kmh 30.07 in1018.3 mb 0.00 in0.0 mm 0.00 in0.0 mm 0.00 in0.0 mm
06:00 AM 74.8°F23.8°C -30.1°F-34.5°C 0% 1.0 mph SE1.6 kmh SE 3.0 mph4.8 kmh 30.07 in1018.3 mb 0.00 in0.0 mm 0.00 in0.0 mm 0.00 in0.0 mm
06:05 AM 74.8°F23.8°C -30.1°F-34.5°C 0% 1.0 mph SE1.6 kmh SE 3.0 mph4.8 kmh 30.07 in1018.3 mb 0.00 in0.0 mm 0.00 in0.0 mm 0.00 in0.0 mm
06:10 AM 74.8°F23.8°C -30.1°F-34.5°C 0% 2.0 mph SE3.2 kmh SE 4.0 mph6.4 kmh 30.08 in1018.6 mb 0.00 in0.0 mm 0.00 in0.0 mm 0.00 in0.0 mm
06:15 AM 74.9°F23.8°C -30.1°F-34.5°C 0% 2.0 mph SE3.2 kmh SE 4.0 mph6.4 kmh 30.08 in1018.6 mb 0.00 in0.0 mm 0.00 in0.0 mm 0.00 in0.0 mm
06:20 AM 75.0°F23.9°C -30.1°F-34.5°C 0% 2.0 mph SE3.2 kmh SE 3.0 mph4.8 kmh 30.08 in1018.6 mb 0.00 in0.0 mm 0.00 in0.0 mm 0.00 in0.0 mm
06:25 AM 75.0°F23.9°C -30.1°F-34.5°C 0% 2.0 mph SE3.2 kmh SE 3.0 mph4.8 kmh 30.09 in1019.0 mb 0.00 in0.0 mm 0.00 in0.0 mm 0.00 in0.0 mm
06:30 AM 75.1°F23.9°C -30.1°F-34.5°C 0% 2.0 mph SE3.2 kmh SE 3.0 mph4.8 kmh 30.08 in1018.6 mb 0.00 in0.0 mm 0.00 in0.0 mm 0.00 in0.0 mm
06:35 AM 75.1°F23.9°C -30.1°F-34.5°C 0% 2.0 mph SE3.2 kmh SE 3.0 mph4.8 kmh 30.09 in1019.0 mb 0.00 in0.0 mm 0.00 in0.0 mm 0.00 in0.0 mm
06:40 AM 75.1°F23.9°C -30.1°F-34.5°C 0% 2.0 mph SE3.2 kmh SE 4.0 mph6.4 kmh 30.09 in1019.0 mb 0.00 in0.0 mm 0.00 in0.0 mm 0.00 in0.0 mm
06:45 AM 75.1°F23.9°C -30.1°F-34.5°C 0% 1.0 mph SE1.6 kmh SE 4.0 mph6.4 kmh 30.09 in1019.0 mb 0.00 in0.0 mm 0.00 in0.0 mm 0.00 in0.0 mm
06:50 AM 75.1°F23.9°C -30.1°F-34.5°C 0% 1.0 mph SE1.6 kmh SE 2.0 mph3.2 kmh 30.09 in1019.0 mb 0.00 in0.0 mm 0.00 in0.0 mm 0.00 in0.0 mm
06:55 AM 75.0°F23.9°C -30.1°F-34.5°C 0% Calm Calm 3.0 mph4.8 kmh 30.09 in1019.0 mb 0.00 in0.0 mm 0.00 in0.0 mm 0.00 in0.0 mm
07:00 AM 74.9°F23.8°C -30.1°F-34.5°C 0% Calm Calm 3.0 mph4.8 kmh 30.09 in1019.0 mb 0.00 in0.0 mm 0.00 in0.0 mm 0.00 in0.0 mm
07:05 AM 74.8°F23.8°C -30.1°F-34.5°C 0% Calm Calm 1.0 mph1.6 kmh 30.09 in1019.0 mb 0.00 in0.0 mm 0.00 in0.0 mm 0.00 in0.0 mm
07:10 AM 74.6°F23.7°C -30.1°F-34.5°C 0% Calm Calm -- 30.10 in1019.3 mb 0.00 in0.0 mm 0.00 in0.0 mm 0.00 in0.0 mm
07:15 AM 74.5°F23.6°C -30.1°F-34.5°C 0% Calm Calm -- 30.10 in1019.3 mb 0.00 in0.0 mm 0.00 in0.0 mm 0.00 in0.0 mm
07:20 AM 74.4°F23.6°C -30.1°F-34.5°C 0% Calm Calm 1.0 mph1.6 kmh 30.10 in1019.3 mb 0.00 in0.0 mm 0.00 in0.0 mm 0.00 in0.0 mm
07:25 AM 74.2°F23.4°C -30.1°F-34.5°C 0% Calm Calm 1.0 mph1.6 kmh 30.10 in1019.3 mb 0.00 in0.0 mm 0.00 in0.0 mm 0.00 in0.0 mm
07:30 AM 74.0°F23.3°C -30.1°F-34.5°C 0% Calm Calm 1.0 mph1.6 kmh 30.10 in1019.3 mb 0.00 in0.0 mm 0.00 in0.0 mm 0.00 in0.0 mm
07:35 AM 73.9°F23.3°C -30.1°F-34.5°C 0% Calm Calm 1.0 mph1.6 kmh 30.11 in1019.6 mb 0.00 in0.0 mm 0.00 in0.0 mm 0.00 in0.0 mm
07:40 AM 73.8°F23.2°C -30.1°F-34.5°C 0% Calm Calm 1.0 mph1.6 kmh 30.11 in1019.6 mb 0.00 in0.0 mm 0.00 in0.0 mm 0.00 in0.0 mm
07:45 AM 73.8°F23.2°C -30.1°F-34.5°C 0% Calm Calm -- 30.11 in1019.6 mb 0.00 in0.0 mm 0.00 in0.0 mm 0.00 in0.0 mm
07:50 AM 73.8°F23.2°C -30.1°F-34.5°C 0% Calm Calm 1.0 mph1.6 kmh 30.11 in1019.6 mb 0.00 in0.0 mm 0.00 in0.0 mm 0.00 in0.0 mm
07:55 AM 73.8°F23.2°C -30.1°F-34.5°C 0% Calm Calm 2.0 mph3.2 kmh 30.11 in1019.6 mb 0.00 in0.0 mm 0.00 in0.0 mm 0.00 in0.0 mm
08:00 AM 73.9°F23.3°C -30.1°F-34.5°C 0% Calm Calm 2.0 mph3.2 kmh 30.11 in1019.6 mb 0.00 in0.0 mm 0.00 in0.0 mm 0.00 in0.0 mm
08:05 AM 74.1°F23.4°C -30.1°F-34.5°C 0% Calm Calm 2.0 mph3.2 kmh 30.11 in1019.6 mb 0.00 in0.0 mm 0.00 in0.0 mm 0.00 in0.0 mm
08:10 AM 74.5°F23.6°C -30.1°F-34.5°C 0% Calm Calm 2.0 mph3.2 kmh 30.11 in1019.6 mb 0.00 in0.0 mm 0.00 in0.0 mm 0.00 in0.0 mm
08:15 AM 74.9°F23.8°C -30.1°F-34.5°C 0% Calm Calm 2.0 mph3.2 kmh 30.11 in1019.6 mb 0.00 in0.0 mm 0.00 in0.0 mm 0.00 in0.0 mm
08:20 AM 75.6°F24.2°C -30.1°F-34.5°C 0% Calm Calm 1.0 mph1.6 kmh 30.12 in1020.0 mb 0.00 in0.0 mm 0.00 in0.0 mm 0.00 in0.0 mm
08:25 AM 76.1°F24.5°C -30.1°F-34.5°C 0% Calm Calm 2.0 mph3.2 kmh 30.12 in1020.0 mb 0.00 in0.0 mm 0.00 in0.0 mm 0.00 in0.0 mm
08:30 AM 76.5°F24.7°C -30.1°F-34.5°C 0% Calm Calm 2.0 mph3.2 kmh 30.12 in1020.0 mb 0.00 in0.0 mm 0.00 in0.0 mm 0.00 in0.0 mm
08:35 AM 76.9°F24.9°C -30.1°F-34.5°C 0% 1.0 mph SE1.6 kmh SE 3.0 mph4.8 kmh 30.12 in1020.0 mb 0.00 in0.0 mm 0.00 in0.0 mm 0.00 in0.0 mm
08:40 AM 77.3°F25.2°C -30.1°F-34.5°C 0% 1.0 mph SE1.6 kmh SE 3.0 mph4.8 kmh 30.12 in1020.0 mb 0.00 in0.0 mm 0.00 in0.0 mm 0.00 in0.0 mm
08:45 AM 77.6°F25.3°C -30.1°F-34.5°C 0% 1.0 mph SE1.6 kmh SE 2.0 mph3.2 kmh 30.12 in1020.0 mb 0.00 in0.0 mm 0.00 in0.0 mm 0.00 in0.0 mm
08:50 AM 78.1°F25.6°C -30.1°F-34.5°C 0% 1.0 mph SE1.6 kmh SE 4.0 mph6.4 kmh 30.12 in1020.0 mb 0.00 in0.0 mm 0.00 in0.0 mm 0.00 in0.0 mm
08:55 AM 78.6°F25.9°C -30.1°F-34.5°C 0% 2.0 mph ESE3.2 kmh ESE 6.0 mph9.7 kmh 30.13 in1020.3 mb 0.00 in0.0 mm 0.00 in0.0 mm 0.00 in0.0 mm
09:00 AM 79.0°F26.1°C -30.1°F-34.5°C 0% 2.0 mph E3.2 kmh E 6.0 mph9.7 kmh 30.13 in1020.3 mb 0.00 in0.0 mm 0.00 in0.0 mm 0.00 in0.0 mm
09:05 AM 79.5°F26.4°C -30.1°F-34.5°C 0% 3.0 mph E4.8 kmh E 7.0 mph11.3 kmh 30.13 in1020.3 mb 0.00 in0.0 mm 0.00 in0.0 mm 0.00 in0.0 mm
09:10 AM 79.9°F26.6°C -30.1°F-34.5°C 0% 2.0 mph E3.2 kmh E 7.0 mph11.3 kmh 30.13 in1020.3 mb 0.00 in0.0 mm 0.00 in0.0 mm 0.00 in0.0 mm
09:15 AM 80.5°F26.9°C -30.1°F-34.5°C 0% 3.0 mph E4.8 kmh E 8.0 mph12.9 kmh 30.13 in1020.3 mb 0.00 in0.0 mm 0.00 in0.0 mm 0.00 in0.0 mm
09:20 AM 81.1°F27.3°C -30.1°F-34.5°C 0% 3.0 mph ESE4.8 kmh ESE 8.0 mph12.9 kmh 30.13 in1020.3 mb 0.00 in0.0 mm 0.00 in0.0 mm 0.00 in0.0 mm
09:25 AM 81.5°F27.5°C -30.1°F-34.5°C 0% 2.0 mph ESE3.2 kmh ESE 7.0 mph11.3 kmh 30.13 in1020.3 mb 0.00 in0.0 mm 0.00 in0.0 mm 0.00 in0.0 mm
09:30 AM 81.8°F27.7°C -30.1°F-34.5°C 0% 3.0 mph ESE4.8 kmh ESE 7.0 mph11.3 kmh 30.13 in1020.3 mb 0.00 in0.0 mm 0.00 in0.0 mm 0.00 in0.0 mm
09:35 AM 82.2°F27.9°C -30.1°F-34.5°C 0% 3.0 mph ESE4.8 kmh ESE 7.0 mph11.3 kmh 30.13 in1020.3 mb 0.00 in0.0 mm 0.00 in0.0 mm 0.00 in0.0 mm
09:40 AM 82.7°F28.2°C -30.1°F-34.5°C 0% 3.0 mph SE4.8 kmh SE 8.0 mph12.9 kmh 30.13 in1020.3 mb 0.00 in0.0 mm 0.00 in0.0 mm 0.00 in0.0 mm
09:45 AM 83.0°F28.3°C -30.1°F-34.5°C 0% 3.0 mph SE4.8 kmh SE 8.0 mph12.9 kmh 30.13 in1020.3 mb 0.00 in0.0 mm 0.00 in0.0 mm 0.00 in0.0 mm
09:50 AM 83.5°F28.6°C -30.1°F-34.5°C 0% 3.0 mph ESE4.8 kmh ESE 7.0 mph11.3 kmh 30.13 in1020.3 mb 0.00 in0.0 mm 0.00 in0.0 mm 0.00 in0.0 mm
09:55 AM 84.1°F28.9°C -30.1°F-34.5°C 0% 2.0 mph SE3.2 kmh SE 5.0 mph8.0 kmh 30.13 in1020.3 mb 0.00 in0.0 mm 0.00 in0.0 mm 0.00 in0.0 mm
10:00 AM 84.3°F29.1°C -30.1°F-34.5°C 0% 3.0 mph ESE4.8 kmh ESE 8.0 mph12.9 kmh 30.14 in1020.7 mb 0.00 in0.0 mm 0.00 in0.0 mm 0.00 in0.0 mm
10:05 AM 84.5°F29.2°C -26.5°F-32.5°C 0% 4.0 mph SE6.4 kmh SE 9.0 mph14.5 kmh 30.14 in1020.7 mb 0.00 in0.0 mm 0.00 in0.0 mm 0.00 in0.0 mm
10:10 AM 84.8°F29.3°C -26.4°F-32.4°C 0% 4.0 mph ESE6.4 kmh ESE 9.0 mph14.5 kmh 30.14 in1020.7 mb 0.00 in0.0 mm 0.00 in0.0 mm 0.00 in0.0 mm
10:15 AM 85.2°F29.6°C 10.7°F-11.8°C 6% 4.0 mph ESE6.4 kmh ESE 8.0 mph12.9 kmh 30.14 in1020.7 mb 0.00 in0.0 mm 0.00 in0.0 mm 0.00 in0.0 mm
10:20 AM 85.3°F29.6°C 22.5°F-5.3°C 10% 3.0 mph ESE4.8 kmh ESE 7.0 mph11.3 kmh 30.13 in1020.3 mb 0.00 in0.0 mm 0.00 in0.0 mm 0.00 in0.0 mm
10:25 AM 85.4°F29.7°C 30.8°F-0.7°C 14% 3.0 mph E4.8 kmh E 7.0 mph11.3 kmh 30.13 in1020.3 mb 0.00 in0.0 mm 0.00 in0.0 mm 0.00 in0.0 mm
10:30 AM 85.9°F29.9°C 31.2°F-0.4°C 14% 3.0 mph ESE4.8 kmh ESE 7.0 mph11.3 kmh 30.13 in1020.3 mb 0.00 in0.0 mm 0.00 in0.0 mm 0.00 in0.0 mm
10:35 AM 86.0°F30.0°C 43.9°F6.6°C 23% 3.0 mph SE4.8 kmh SE 8.0 mph12.9 kmh 30.14 in1020.7 mb 0.00 in0.0 mm 0.00 in0.0 mm 0.00 in0.0 mm
10:40 AM 86.2°F30.1°C 49.3°F9.6°C 28% 3.0 mph SE4.8 kmh SE 10.0 mph16.1 kmh 30.14 in1020.7 mb 0.00 in0.0 mm 0.00 in0.0 mm 0.00 in0.0 mm
10:45 AM 86.3°F30.2°C 41.8°F5.4°C 21% 3.0 mph SE4.8 kmh SE 10.0 mph16.1 kmh 30.13 in1020.3 mb 0.00 in0.0 mm 0.00 in0.0 mm 0.00 in0.0 mm
10:50 AM 86.9°F30.5°C 51.7°F10.9°C 30% 3.0 mph ESE4.8 kmh ESE 7.0 mph11.3 kmh 30.14 in1020.7 mb 0.00 in0.0 mm 0.00 in0.0 mm 0.00 in0.0 mm
10:55 AM 87.5°F30.8°C 57.3°F14.1°C 36% 3.0 mph E4.8 kmh E 11.0 mph17.7 kmh 30.14 in1020.7 mb 0.00 in0.0 mm 0.00 in0.0 mm 0.00 in0.0 mm
11:00 AM 87.8°F31.0°C 70.1°F21.2°C 56% 5.0 mph ESE8.0 kmh ESE 13.0 mph20.9 kmh 30.14 in1020.7 mb 0.00 in0.0 mm 0.00 in0.0 mm 0.00 in0.0 mm
11:05 AM 88.0°F31.1°C 70.9°F21.6°C 57% 6.0 mph SE9.7 kmh SE 13.0 mph20.9 kmh 30.14 in1020.7 mb 0.00 in0.0 mm 0.00 in0.0 mm 0.00 in0.0 mm
11:10 AM 88.4°F31.3°C 71.7°F22.1°C 58% 5.0 mph SE8.0 kmh SE 11.0 mph17.7 kmh 30.14 in1020.7 mb 0.00 in0.0 mm 0.00 in0.0 mm 0.00 in0.0 mm
11:15 AM 88.7°F31.5°C 73.0°F22.8°C 60% 5.0 mph SE8.0 kmh SE 8.0 mph12.9 kmh 30.14 in1020.7 mb 0.00 in0.0 mm 0.00 in0.0 mm 0.00 in0.0 mm
11:20 AM 89.2°F31.8°C 72.5°F22.5°C 58% 5.0 mph SE8.0 kmh SE 8.0 mph12.9 kmh 30.14 in1020.7 mb 0.00 in0.0 mm 0.00 in0.0 mm 0.00 in0.0 mm
11:25 AM 89.5°F31.9°C 74.3°F23.5°C 61% 4.0 mph SE6.4 kmh SE 9.0 mph14.5 kmh 30.14 in1020.7 mb 0.00 in0.0 mm 0.00 in0.0 mm 0.00 in0.0 mm
11:30 AM 89.8°F32.1°C 74.6°F23.7°C 61% 4.0 mph SE6.4 kmh SE 9.0 mph14.5 kmh 30.14 in1020.7 mb 0.00 in0.0 mm 0.00 in0.0 mm 0.00 in0.0 mm
11:35 AM 90.0°F32.2°C 74.7°F23.7°C 61% 5.0 mph SE8.0 kmh SE 10.0 mph16.1 kmh 30.14 in1020.7 mb 0.00 in0.0 mm 0.00 in0.0 mm 0.00 in0.0 mm
11:40 AM 90.2°F32.3°C 74.9°F23.8°C 61% 5.0 mph SE8.0 kmh SE 12.0 mph19.3 kmh 30.14 in1020.7 mb 0.00 in0.0 mm 0.00 in0.0 mm 0.00 in0.0 mm
11:45 AM 90.3°F32.4°C 75.0°F23.9°C 61% 5.0 mph SE8.0 kmh SE 12.0 mph19.3 kmh 30.13 in1020.3 mb 0.00 in0.0 mm 0.00 in0.0 mm 0.00 in0.0 mm
11:50 AM 90.4°F32.4°C 75.1°F23.9°C 61% 5.0 mph SE8.0 kmh SE 10.0 mph16.1 kmh 30.13 in1020.3 mb 0.00 in0.0 mm 0.00 in0.0 mm 0.00 in0.0 mm
11:55 AM 90.7°F32.6°C 75.4°F24.1°C 61% 5.0 mph SE8.0 kmh SE 10.0 mph16.1 kmh 30.13 in1020.3 mb 0.00 in0.0 mm 0.00 in0.0 mm 0.00 in0.0 mm
12:00 PM 91.3°F32.9°C 76.0°F24.4°C 61% 4.0 mph ESE6.4 kmh ESE 9.0 mph14.5 kmh 30.13 in1020.3 mb 0.00 in0.0 mm 0.00 in0.0 mm 0.00 in0.0 mm
12:05 PM 91.7°F33.2°C 75.8°F24.3°C 60% 4.0 mph SE6.4 kmh SE 9.0 mph14.5 kmh 30.13 in1020.3 mb 0.00 in0.0 mm 0.00 in0.0 mm 0.00 in0.0 mm
12:10 PM 91.9°F33.3°C 75.0°F23.9°C 58% 4.0 mph SE6.4 kmh SE 11.0 mph17.7 kmh 30.13 in1020.3 mb 0.00 in0.0 mm 0.00 in0.0 mm 0.00 in0.0 mm
12:15 PM 92.2°F33.4°C 76.3°F24.6°C 60% 4.0 mph SE6.4 kmh SE 11.0 mph17.7 kmh 30.13 in1020.3 mb 0.00 in0.0 mm 0.00 in0.0 mm 0.00 in0.0 mm
12:20 PM 92.6°F33.7°C 75.1°F23.9°C 57% 3.0 mph SE4.8 kmh SE 11.0 mph17.7 kmh 30.13 in1020.3 mb 0.00 in0.0 mm 0.00 in0.0 mm 0.00 in0.0 mm
12:25 PM 92.5°F33.6°C 75.6°F24.2°C 58% 4.0 mph SE6.4 kmh SE 11.0 mph17.7 kmh 30.12 in1020.0 mb 0.00 in0.0 mm 0.00 in0.0 mm 0.00 in0.0 mm
12:30 PM 92.6°F33.7°C 75.7°F24.3°C 58% 4.0 mph SE6.4 kmh SE 9.0 mph14.5 kmh 30.12 in1020.0 mb 0.00 in0.0 mm 0.00 in0.0 mm 0.00 in0.0 mm
12:35 PM 92.9°F33.8°C 75.9°F24.4°C 58% 4.0 mph SE6.4 kmh SE 9.0 mph14.5 kmh 30.12 in1020.0 mb 0.00 in0.0 mm 0.00 in0.0 mm 0.00 in0.0 mm
12:40 PM 93.0°F33.9°C 75.5°F24.2°C 57% 4.0 mph E6.4 kmh E 9.0 mph14.5 kmh 30.12 in1020.0 mb 0.00 in0.0 mm 0.00 in0.0 mm 0.00 in0.0 mm
12:45 PM 92.9°F33.8°C 74.4°F23.6°C 55% 4.0 mph SE6.4 kmh SE 9.0 mph14.5 kmh 30.12 in1020.0 mb 0.00 in0.0 mm 0.00 in0.0 mm 0.00 in0.0 mm
12:50 PM 92.8°F33.8°C 75.3°F24.1°C 57% 5.0 mph SE8.0 kmh SE 11.0 mph17.7 kmh 30.11 in1019.6 mb 0.00 in0.0 mm 0.00 in0.0 mm 0.00 in0.0 mm
12:55 PM 92.8°F33.8°C 73.2°F22.9°C 53% 5.0 mph SE8.0 kmh SE 11.0 mph17.7 kmh 30.11 in1019.6 mb 0.00 in0.0 mm 0.00 in0.0 mm 0.00 in0.0 mm
01:00 PM 93.1°F33.9°C 74.0°F23.3°C 54% 5.0 mph SE8.0 kmh SE 10.0 mph16.1 kmh 30.11 in1019.6 mb 0.00 in0.0 mm 0.00 in0.0 mm 0.00 in0.0 mm
01:05 PM 93.6°F34.2°C 75.0°F23.9°C 55% 3.0 mph SE4.8 kmh SE 10.0 mph16.1 kmh 30.11 in1019.6 mb 0.00 in0.0 mm 0.00 in0.0 mm 0.00 in0.0 mm
01:10 PM 94.0°F34.4°C 75.4°F24.1°C 55% 3.0 mph ESE4.8 kmh ESE 9.0 mph14.5 kmh 30.11 in1019.6 mb 0.00 in0.0 mm 0.00 in0.0 mm 0.00 in0.0 mm
01:15 PM 94.0°F34.4°C 74.8°F23.8°C 54% 4.0 mph E6.4 kmh E 9.0 mph14.5 kmh 30.11 in1019.6 mb 0.00 in0.0 mm 0.00 in0.0 mm 0.00 in0.0 mm
01:20 PM 94.0°F34.4°C 75.4°F24.1°C 55% 4.0 mph E6.4 kmh E 9.0 mph14.5 kmh 30.10 in1019.3 mb 0.00 in0.0 mm 0.00 in0.0 mm 0.00 in0.0 mm
01:25 PM 94.2°F34.6°C 75.0°F23.9°C 54% 4.0 mph ENE6.4 kmh ENE 8.0 mph12.9 kmh 30.10 in1019.3 mb 0.00 in0.0 mm 0.00 in0.0 mm 0.00 in0.0 mm
01:30 PM 93.9°F34.4°C 74.2°F23.4°C 53% 5.0 mph NE8.0 kmh NE 9.0 mph14.5 kmh 30.10 in1019.3 mb 0.00 in0.0 mm 0.00 in0.0 mm 0.00 in0.0 mm
01:35 PM 93.8°F34.3°C 74.1°F23.4°C 53% 5.0 mph NE8.0 kmh NE 9.0 mph14.5 kmh 30.09 in1019.0 mb 0.00 in0.0 mm 0.00 in0.0 mm 0.00 in0.0 mm
01:40 PM 94.1°F34.5°C 74.9°F23.8°C 54% 5.0 mph ENE8.0 kmh ENE 9.0 mph14.5 kmh 30.09 in1019.0 mb 0.00 in0.0 mm 0.00 in0.0 mm 0.00 in0.0 mm
01:45 PM 94.3°F34.6°C 74.5°F23.6°C 53% 4.0 mph ENE6.4 kmh ENE 9.0 mph14.5 kmh 30.09 in1019.0 mb 0.00 in0.0 mm 0.00 in0.0 mm 0.00 in0.0 mm
01:50 PM 94.5°F34.7°C 75.3°F24.1°C 54% 4.0 mph ENE6.4 kmh ENE 8.0 mph12.9 kmh 30.09 in1019.0 mb 0.00 in0.0 mm 0.00 in0.0 mm 0.00 in0.0 mm
01:55 PM 94.9°F34.9°C 75.1°F23.9°C 53% 4.0 mph E6.4 kmh E 9.0 mph14.5 kmh 30.09 in1019.0 mb 0.00 in0.0 mm 0.00 in0.0 mm 0.00 in0.0 mm
02:00 PM 95.0°F35.0°C 75.2°F24.0°C 53% 4.0 mph ESE6.4 kmh ESE 9.0 mph14.5 kmh 30.09 in1019.0 mb 0.00 in0.0 mm 0.00 in0.0 mm 0.00 in0.0 mm
02:05 PM 94.8°F34.9°C 73.8°F23.2°C 51% 3.0 mph E4.8 kmh E 8.0 mph12.9 kmh 30.09 in1019.0 mb 0.00 in0.0 mm 0.00 in0.0 mm 0.00 in0.0 mm
02:10 PM 95.1°F35.1°C 75.3°F24.1°C 53% 4.0 mph NE6.4 kmh NE 8.0 mph12.9 kmh 30.08 in1018.6 mb 0.00 in0.0 mm 0.00 in0.0 mm 0.00 in0.0 mm
02:15 PM 95.5°F35.3°C 75.1°F23.9°C 52% 3.0 mph ENE4.8 kmh ENE 7.0 mph11.3 kmh 30.08 in1018.6 mb 0.00 in0.0 mm 0.00 in0.0 mm 0.00 in0.0 mm
02:20 PM 95.8°F35.4°C 74.8°F23.8°C 51% 3.0 mph NE4.8 kmh NE 8.0 mph12.9 kmh 30.08 in1018.6 mb 0.00 in0.0 mm 0.00 in0.0 mm 0.00 in0.0 mm
02:25 PM 96.1°F35.6°C 74.5°F23.6°C 50% 4.0 mph NE6.4 kmh NE 8.0 mph12.9 kmh 30.07 in1018.3 mb 0.00 in0.0 mm 0.00 in0.0 mm 0.00 in0.0 mm
02:30 PM 96.1°F35.6°C 75.0°F23.9°C 51% 4.0 mph NNE6.4 kmh NNE 8.0 mph12.9 kmh 30.07 in1018.3 mb 0.00 in0.0 mm 0.00 in0.0 mm 0.00 in0.0 mm
02:35 PM 96.1°F35.6°C 75.0°F23.9°C 51% 3.0 mph NE4.8 kmh NE 9.0 mph14.5 kmh 30.07 in1018.3 mb 0.00 in0.0 mm 0.00 in0.0 mm 0.00 in0.0 mm
02:40 PM 95.9°F35.5°C 75.4°F24.1°C 52% 3.0 mph ENE4.8 kmh ENE 9.0 mph14.5 kmh 30.07 in1018.3 mb 0.00 in0.0 mm 0.00 in0.0 mm 0.00 in0.0 mm
02:45 PM 95.6°F35.3°C 75.2°F24.0°C 52% 2.0 mph NE3.2 kmh NE 6.0 mph9.7 kmh 30.07 in1018.3 mb 0.00 in0.0 mm 0.00 in0.0 mm 0.00 in0.0 mm
02:50 PM 95.6°F35.3°C 75.2°F24.0°C 52% 2.0 mph NE3.2 kmh NE 5.0 mph8.0 kmh 30.07 in1018.3 mb 0.00 in0.0 mm 0.00 in0.0 mm 0.00 in0.0 mm
02:55 PM 95.7°F35.4°C 75.3°F24.1°C 52% 2.0 mph NE3.2 kmh NE 7.0 mph11.3 kmh 30.07 in1018.3 mb 0.00 in0.0 mm 0.00 in0.0 mm 0.00 in0.0 mm
03:00 PM 96.1°F35.6°C 75.6°F24.2°C 52% 3.0 mph NNE4.8 kmh NNE 7.0 mph11.3 kmh 30.06 in1017.9 mb 0.00 in0.0 mm 0.00 in0.0 mm 0.00 in0.0 mm
03:05 PM 96.5°F35.8°C 75.4°F24.1°C 51% 3.0 mph NNE4.8 kmh NNE 6.0 mph9.7 kmh 30.06 in1017.9 mb 0.00 in0.0 mm 0.00 in0.0 mm 0.00 in0.0 mm
03:10 PM 96.0°F35.6°C 73.8°F23.2°C 49% 3.0 mph NNE4.8 kmh NNE 7.0 mph11.3 kmh 30.06 in1017.9 mb 0.00 in0.0 mm 0.00 in0.0 mm 0.00 in0.0 mm
03:15 PM 95.4°F35.2°C 74.4°F23.6°C 51% 3.0 mph NE4.8 kmh NE 7.0 mph11.3 kmh 30.06 in1017.9 mb 0.00 in0.0 mm 0.00 in0.0 mm 0.00 in0.0 mm
03:20 PM 95.2°F35.1°C 74.8°F23.8°C 52% 2.0 mph NE3.2 kmh NE 6.0 mph9.7 kmh 30.06 in1017.9 mb 0.00 in0.0 mm 0.00 in0.0 mm 0.00 in0.0 mm
03:25 PM 95.2°F35.1°C 74.2°F23.4°C 51% 2.0 mph N3.2 kmh N 6.0 mph9.7 kmh 30.06 in1017.9 mb 0.00 in0.0 mm 0.00 in0.0 mm 0.00 in0.0 mm
03:30 PM 95.5°F35.3°C 73.9°F23.3°C 50% 2.0 mph N3.2 kmh N 5.0 mph8.0 kmh 30.06 in1017.9 mb 0.00 in0.0 mm 0.00 in0.0 mm 0.00 in0.0 mm
03:35 PM 95.8°F35.4°C 74.8°F23.8°C 51% 2.0 mph N3.2 kmh N 4.0 mph6.4 kmh 30.06 in1017.9 mb 0.00 in0.0 mm 0.00 in0.0 mm 0.00 in0.0 mm
03:40 PM 96.4°F35.8°C 75.3°F24.1°C 51% 3.0 mph NE4.8 kmh NE 8.0 mph12.9 kmh 30.06 in1017.9 mb 0.00 in0.0 mm 0.00 in0.0 mm 0.00 in0.0 mm
03:45 PM 97.0°F36.1°C 75.3°F24.1°C 50% 3.0 mph E4.8 kmh E 10.0 mph16.1 kmh 30.06 in1017.9 mb 0.00 in0.0 mm 0.00 in0.0 mm 0.00 in0.0 mm
03:50 PM 97.3°F36.3°C 75.5°F24.2°C 50% 4.0 mph E6.4 kmh E 10.0 mph16.1 kmh 30.05 in1017.6 mb 0.00 in0.0 mm 0.00 in0.0 mm 0.00 in0.0 mm
03:55 PM 97.8°F36.6°C 75.4°F24.1°C 49% 4.0 mph ENE6.4 kmh ENE 11.0 mph17.7 kmh 30.05 in1017.6 mb 0.00 in0.0 mm 0.00 in0.0 mm 0.00 in0.0 mm
04:00 PM 97.6°F36.4°C 75.2°F24.0°C 49% 4.0 mph ENE6.4 kmh ENE 11.0 mph17.7 kmh 30.06 in1017.9 mb 0.00 in0.0 mm 0.00 in0.0 mm 0.00 in0.0 mm
04:05 PM 97.4°F36.3°C 75.0°F23.9°C 49% 3.0 mph E4.8 kmh E 9.0 mph14.5 kmh 30.05 in1017.6 mb 0.00 in0.0 mm 0.00 in0.0 mm 0.00 in0.0 mm
04:10 PM 97.2°F36.2°C 74.9°F23.8°C 49% 2.0 mph ESE3.2 kmh ESE 6.0 mph9.7 kmh 30.05 in1017.6 mb 0.00 in0.0 mm 0.00 in0.0 mm 0.00 in0.0 mm
04:15 PM 97.3°F36.3°C 76.1°F24.5°C 51% 2.0 mph E3.2 kmh E 6.0 mph9.7 kmh 30.05 in1017.6 mb 0.00 in0.0 mm 0.00 in0.0 mm 0.00 in0.0 mm
04:20 PM 97.1°F36.2°C 74.8°F23.8°C 49% 3.0 mph NE4.8 kmh NE 7.0 mph11.3 kmh 30.05 in1017.6 mb 0.00 in0.0 mm 0.00 in0.0 mm 0.00 in0.0 mm
04:25 PM 96.7°F35.9°C 75.0°F23.9°C 50% 4.0 mph NE6.4 kmh NE 9.0 mph14.5 kmh 30.05 in1017.6 mb 0.00 in0.0 mm 0.00 in0.0 mm 0.00 in0.0 mm
04:30 PM 96.3°F35.7°C 74.0°F23.3°C 49% 4.0 mph E6.4 kmh E 9.0 mph14.5 kmh 30.05 in1017.6 mb 0.00 in0.0 mm 0.00 in0.0 mm 0.00 in0.0 mm
04:35 PM 95.0°F35.0°C 74.0°F23.3°C 51% 3.0 mph E4.8 kmh E 7.0 mph11.3 kmh 30.05 in1017.6 mb 0.00 in0.0 mm 0.00 in0.0 mm 0.00 in0.0 mm
04:40 PM 94.5°F34.7°C 74.7°F23.7°C 53% 2.0 mph ENE3.2 kmh ENE 4.0 mph6.4 kmh 30.05 in1017.6 mb 0.00 in0.0 mm 0.00 in0.0 mm 0.00 in0.0 mm
04:45 PM 94.6°F34.8°C 74.2°F23.4°C 52% 2.0 mph ENE3.2 kmh ENE 7.0 mph11.3 kmh 30.05 in1017.6 mb 0.00 in0.0 mm 0.00 in0.0 mm 0.00 in0.0 mm
04:50 PM 94.8°F34.9°C 74.4°F23.6°C 52% 3.0 mph ENE4.8 kmh ENE 7.0 mph11.3 kmh 30.06 in1017.9 mb 0.00 in0.0 mm 0.00 in0.0 mm 0.00 in0.0 mm
04:55 PM 94.9°F34.9°C 73.4°F23.0°C 50% 3.0 mph E4.8 kmh E 7.0 mph11.3 kmh 30.05 in1017.6 mb 0.00 in0.0 mm 0.00 in0.0 mm 0.00 in0.0 mm
05:00 PM 95.0°F35.0°C 73.4°F23.0°C 50% 3.0 mph E4.8 kmh E 8.0 mph12.9 kmh 30.05 in1017.6 mb 0.00 in0.0 mm 0.00 in0.0 mm 0.00 in0.0 mm
05:05 PM 94.9°F34.9°C 72.8°F22.7°C 49% 4.0 mph ESE6.4 kmh ESE 9.0 mph14.5 kmh 30.05 in1017.6 mb 0.00 in0.0 mm 0.00 in0.0 mm 0.00 in0.0 mm
05:10 PM 94.9°F34.9°C 72.8°F22.7°C 49% 4.0 mph ESE6.4 kmh ESE 9.0 mph14.5 kmh 30.05 in1017.6 mb 0.00 in0.0 mm 0.00 in0.0 mm 0.00 in0.0 mm
05:15 PM 94.9°F34.9°C 72.1°F22.3°C 48% 4.0 mph ESE6.4 kmh ESE 9.0 mph14.5 kmh 30.05 in1017.6 mb 0.00 in0.0 mm 0.00 in0.0 mm 0.00 in0.0 mm
05:20 PM 94.8°F34.9°C 72.0°F22.2°C 48% 4.0 mph ESE6.4 kmh ESE 8.0 mph12.9 kmh 30.05 in1017.6 mb 0.00 in0.0 mm 0.00 in0.0 mm 0.00 in0.0 mm
05:25 PM 94.7°F34.8°C 72.6°F22.6°C 49% 4.0 mph ESE6.4 kmh ESE 8.0 mph12.9 kmh 30.05 in1017.6 mb 0.00 in0.0 mm 0.00 in0.0 mm 0.00 in0.0 mm
05:30 PM 94.7°F34.8°C 73.2°F22.9°C 50% 4.0 mph ESE6.4 kmh ESE 8.0 mph12.9 kmh 30.05 in1017.6 mb 0.00 in0.0 mm 0.00 in0.0 mm 0.00 in0.0 mm
05:35 PM 94.7°F34.8°C 73.8°F23.2°C 51% 4.0 mph ESE6.4 kmh ESE 9.0 mph14.5 kmh 30.06 in1017.9 mb 0.00 in0.0 mm 0.00 in0.0 mm 0.00 in0.0 mm
05:40 PM 94.7°F34.8°C 73.8°F23.2°C 51% 4.0 mph E6.4 kmh E 9.0 mph14.5 kmh 30.05 in1017.6 mb 0.00 in0.0 mm 0.00 in0.0 mm 0.00 in0.0 mm
05:45 PM 94.5°F34.7°C 74.2°F23.4°C 52% 4.0 mph ENE6.4 kmh ENE 8.0 mph12.9 kmh 30.05 in1017.6 mb 0.00 in0.0 mm 0.00 in0.0 mm 0.00 in0.0 mm
05:50 PM 94.3°F34.6°C 73.4°F23.0°C 51% 4.0 mph E6.4 kmh E 10.0 mph16.1 kmh 30.06 in1017.9 mb 0.00 in0.0 mm 0.00 in0.0 mm 0.00 in0.0 mm
05:55 PM 94.2°F34.6°C 73.9°F23.3°C 52% 3.0 mph E4.8 kmh E 10.0 mph16.1 kmh 30.05 in1017.6 mb 0.00 in0.0 mm 0.00 in0.0 mm 0.00 in0.0 mm
06:00 PM 94.0°F34.4°C 73.1°F22.8°C 51% 3.0 mph E4.8 kmh E 10.0 mph16.1 kmh 30.05 in1017.6 mb 0.00 in0.0 mm 0.00 in0.0 mm 0.00 in0.0 mm
06:05 PM 93.1°F33.9°C 73.4°F23.0°C 53% 3.0 mph ESE4.8 kmh ESE 10.0 mph16.1 kmh 30.05 in1017.6 mb 0.00 in0.0 mm 0.00 in0.0 mm 0.00 in0.0 mm
06:10 PM 92.5°F33.6°C 72.9°F22.7°C 53% 3.0 mph ESE4.8 kmh ESE 7.0 mph11.3 kmh 30.06 in1017.9 mb 0.00 in0.0 mm 0.00 in0.0 mm 0.00 in0.0 mm
06:15 PM 92.0°F33.3°C 73.5°F23.1°C 55% 2.0 mph ESE3.2 kmh ESE 7.0 mph11.3 kmh 30.06 in1017.9 mb 0.00 in0.0 mm 0.00 in0.0 mm 0.00 in0.0 mm
06:20 PM 91.5°F33.1°C 73.1°F22.8°C 55% 2.0 mph ESE3.2 kmh ESE 5.0 mph8.0 kmh 30.05 in1017.6 mb 0.00 in0.0 mm 0.00 in0.0 mm 0.00 in0.0 mm
06:25 PM 91.0°F32.8°C 73.1°F22.8°C 56% 2.0 mph ESE3.2 kmh ESE 6.0 mph9.7 kmh 30.06 in1017.9 mb 0.00 in0.0 mm 0.00 in0.0 mm 0.00 in0.0 mm
06:30 PM 90.7°F32.6°C 73.4°F23.0°C 57% 2.0 mph ESE3.2 kmh ESE 6.0 mph9.7 kmh 30.06 in1017.9 mb 0.00 in0.0 mm 0.00 in0.0 mm 0.00 in0.0 mm
06:35 PM 90.3°F32.4°C 73.0°F22.8°C 57% 2.0 mph ESE3.2 kmh ESE 4.0 mph6.4 kmh 30.06 in1017.9 mb 0.00 in0.0 mm 0.00 in0.0 mm 0.00 in0.0 mm
06:40 PM 89.8°F32.1°C 73.0°F22.8°C 58% 2.0 mph ESE3.2 kmh ESE 5.0 mph8.0 kmh 30.06 in1017.9 mb 0.00 in0.0 mm 0.00 in0.0 mm 0.00 in0.0 mm
06:45 PM 89.4°F31.9°C 73.2°F22.9°C 59% 1.0 mph ESE1.6 kmh ESE 5.0 mph8.0 kmh 30.06 in1017.9 mb 0.00 in0.0 mm 0.00 in0.0 mm 0.00 in0.0 mm
06:50 PM 88.9°F31.6°C 73.2°F22.9°C 60% 1.0 mph ESE1.6 kmh ESE 3.0 mph4.8 kmh 30.06 in1017.9 mb 0.00 in0.0 mm 0.00 in0.0 mm 0.00 in0.0 mm
06:55 PM 88.5°F31.4°C 73.3°F22.9°C 61% 1.0 mph ESE1.6 kmh ESE 3.0 mph4.8 kmh 30.06 in1017.9 mb 0.00 in0.0 mm 0.00 in0.0 mm 0.00 in0.0 mm
07:00 PM 88.1°F31.2°C 73.4°F23.0°C 62% 1.0 mph ESE1.6 kmh ESE 3.0 mph4.8 kmh 30.07 in1018.3 mb 0.00 in0.0 mm 0.00 in0.0 mm 0.00 in0.0 mm
07:05 PM 87.7°F30.9°C 73.1°F22.8°C 62% Calm Calm 2.0 mph3.2 kmh 30.07 in1018.3 mb 0.00 in0.0 mm 0.00 in0.0 mm 0.00 in0.0 mm
07:10 PM 87.2°F30.7°C 73.1°F22.8°C 63% 1.0 mph ESE1.6 kmh ESE 2.0 mph3.2 kmh 30.07 in1018.3 mb 0.00 in0.0 mm 0.00 in0.0 mm 0.00 in0.0 mm
07:15 PM 86.6°F30.3°C 73.0°F22.8°C 64% 1.0 mph E1.6 kmh E 6.0 mph9.7 kmh 30.07 in1018.3 mb 0.00 in0.0 mm 0.00 in0.0 mm 0.00 in0.0 mm
07:20 PM 86.1°F30.1°C 72.5°F22.5°C 64% 2.0 mph E3.2 kmh E 8.0 mph12.9 kmh 30.07 in1018.3 mb 0.00 in0.0 mm 0.00 in0.0 mm 0.00 in0.0 mm
07:25 PM 85.7°F29.8°C 72.1°F22.3°C 64% 3.0 mph E4.8 kmh E 8.0 mph12.9 kmh 30.07 in1018.3 mb 0.00 in0.0 mm 0.00 in0.0 mm 0.00 in0.0 mm
07:30 PM 85.5°F29.7°C 71.9°F22.2°C 64% 3.0 mph E4.8 kmh E 8.0 mph12.9 kmh 30.07 in1018.3 mb 0.00 in0.0 mm 0.00 in0.0 mm 0.00 in0.0 mm
07:35 PM 85.2°F29.6°C 71.6°F22.0°C 64% 2.0 mph E3.2 kmh E 7.0 mph11.3 kmh 30.07 in1018.3 mb 0.00 in0.0 mm 0.00 in0.0 mm 0.00 in0.0 mm
07:40 PM 85.0°F29.4°C 71.5°F21.9°C 64% 3.0 mph E4.8 kmh E 8.0 mph12.9 kmh 30.07 in1018.3 mb 0.00 in0.0 mm 0.00 in0.0 mm 0.00 in0.0 mm
07:45 PM 84.7°F29.3°C 71.2°F21.8°C 64% 3.0 mph E4.8 kmh E 9.0 mph14.5 kmh 30.08 in1018.6 mb 0.00 in0.0 mm 0.00 in0.0 mm 0.00 in0.0 mm
07:50 PM 84.4°F29.1°C 70.9°F21.6°C 64% 3.0 mph E4.8 kmh E 9.0 mph14.5 kmh 30.08 in1018.6 mb 0.00 in0.0 mm 0.00 in0.0 mm 0.00 in0.0 mm
07:55 PM 84.2°F29.0°C 70.7°F21.5°C 64% 3.0 mph E4.8 kmh E 7.0 mph11.3 kmh 30.08 in1018.6 mb 0.00 in0.0 mm 0.00 in0.0 mm 0.00 in0.0 mm
08:00 PM 84.1°F28.9°C 70.6°F21.4°C 64% 3.0 mph E4.8 kmh E 7.0 mph11.3 kmh 30.08 in1018.6 mb 0.00 in0.0 mm 0.00 in0.0 mm 0.00 in0.0 mm
08:05 PM 83.9°F28.8°C 70.0°F21.1°C 63% 2.0 mph E3.2 kmh E 7.0 mph11.3 kmh 30.09 in1019.0 mb 0.00 in0.0 mm 0.00 in0.0 mm 0.00 in0.0 mm
08:10 PM 83.7°F28.7°C 69.8°F21.0°C 63% 2.0 mph E3.2 kmh E 7.0 mph11.3 kmh 30.09 in1019.0 mb 0.00 in0.0 mm 0.00 in0.0 mm 0.00 in0.0 mm
08:15 PM 83.5°F28.6°C 69.1°F20.6°C 62% 3.0 mph E4.8 kmh E 8.0 mph12.9 kmh 30.09 in1019.0 mb 0.00 in0.0 mm 0.00 in0.0 mm 0.00 in0.0 mm
08:20 PM 83.3°F28.5°C 68.4°F20.2°C 61% 2.0 mph E3.2 kmh E 8.0 mph12.9 kmh 30.09 in1019.0 mb 0.00 in0.0 mm 0.00 in0.0 mm 0.00 in0.0 mm
08:25 PM 83.1°F28.4°C 67.8°F19.9°C 60% 2.0 mph E3.2 kmh E 6.0 mph9.7 kmh 30.09 in1019.0 mb 0.00 in0.0 mm 0.00 in0.0 mm 0.00 in0.0 mm
08:30 PM 82.9°F28.3°C 67.1°F19.5°C 59% 2.0 mph E3.2 kmh E 7.0 mph11.3 kmh 30.10 in1019.3 mb 0.00 in0.0 mm 0.00 in0.0 mm 0.00 in0.0 mm
08:35 PM 82.7°F28.2°C 66.4°F19.1°C 58% 3.0 mph E4.8 kmh E 8.0 mph12.9 kmh 30.10 in1019.3 mb 0.00 in0.0 mm 0.00 in0.0 mm 0.00 in0.0 mm
08:40 PM 82.5°F28.1°C 66.2°F19.0°C 58% 3.0 mph E4.8 kmh E 8.0 mph12.9 kmh 30.10 in1019.3 mb 0.00 in0.0 mm 0.00 in0.0 mm 0.00 in0.0 mm
08:45 PM 82.4°F28.0°C 65.6°F18.7°C 57% 3.0 mph ESE4.8 kmh ESE 7.0 mph11.3 kmh 30.10 in1019.3 mb 0.00 in0.0 mm 0.00 in0.0 mm 0.00 in0.0 mm
08:50 PM 82.3°F27.9°C 65.0°F18.3°C 56% 3.0 mph E4.8 kmh E 7.0 mph11.3 kmh 30.10 in1019.3 mb 0.00 in0.0 mm 0.00 in0.0 mm 0.00 in0.0 mm
08:55 PM 82.1°F27.8°C 64.3°F17.9°C 55% 2.0 mph E3.2 kmh E 7.0 mph11.3 kmh 30.10 in1019.3 mb 0.00 in0.0 mm 0.00 in0.0 mm 0.00 in0.0 mm
09:00 PM 82.0°F27.8°C 63.2°F17.3°C 53% 2.0 mph E3.2 kmh E 7.0 mph11.3 kmh 30.11 in1019.6 mb 0.00 in0.0 mm 0.00 in0.0 mm 0.00 in0.0 mm
09:05 PM 81.9°F27.7°C 62.5°F16.9°C 52% 2.0 mph E3.2 kmh E 7.0 mph11.3 kmh 30.11 in1019.6 mb 0.00 in0.0 mm 0.00 in0.0 mm 0.00 in0.0 mm
09:10 PM 81.7°F27.6°C 61.2°F16.2°C 50% 2.0 mph E3.2 kmh E 4.0 mph6.4 kmh 30.11 in1019.6 mb 0.00 in0.0 mm 0.00 in0.0 mm 0.00 in0.0 mm
09:15 PM 81.5°F27.5°C 60.5°F15.8°C 49% 2.0 mph E3.2 kmh E 5.0 mph8.0 kmh 30.11 in1019.6 mb 0.00 in0.0 mm 0.00 in0.0 mm 0.00 in0.0 mm
09:20 PM 81.4°F27.4°C 59.8°F15.4°C 48% 3.0 mph ESE4.8 kmh ESE 7.0 mph11.3 kmh 30.11 in1019.6 mb 0.00 in0.0 mm 0.00 in0.0 mm 0.00 in0.0 mm
09:25 PM 81.3°F27.4°C 59.1°F15.1°C 47% 3.0 mph E4.8 kmh E 7.0 mph11.3 kmh 30.11 in1019.6 mb 0.00 in0.0 mm 0.00 in0.0 mm 0.00 in0.0 mm
09:30 PM 81.2°F27.3°C 58.5°F14.7°C 46% 3.0 mph E4.8 kmh E 7.0 mph11.3 kmh 30.11 in1019.6 mb 0.00 in0.0 mm 0.00 in0.0 mm 0.00 in0.0 mm
09:35 PM 81.1°F27.3°C 57.7°F14.3°C 45% 2.0 mph E3.2 kmh E 7.0 mph11.3 kmh 30.12 in1020.0 mb 0.00 in0.0 mm 0.00 in0.0 mm 0.00 in0.0 mm
09:40 PM 80.9°F27.2°C 55.7°F13.2°C 42% 2.0 mph E3.2 kmh E 7.0 mph11.3 kmh 30.12 in1020.0 mb 0.00 in0.0 mm 0.00 in0.0 mm 0.00 in0.0 mm
09:45 PM 80.7°F27.1°C 54.1°F12.3°C 40% 2.0 mph E3.2 kmh E 7.0 mph11.3 kmh 30.12 in1020.0 mb 0.00 in0.0 mm 0.00 in0.0 mm 0.00 in0.0 mm
09:50 PM 80.5°F26.9°C 52.6°F11.4°C 38% 2.0 mph E3.2 kmh E 5.0 mph8.0 kmh 30.12 in1020.0 mb 0.00 in0.0 mm 0.00 in0.0 mm 0.00 in0.0 mm
09:55 PM 80.3°F26.8°C 50.1°F10.1°C 35% 2.0 mph ESE3.2 kmh ESE 6.0 mph9.7 kmh 30.12 in1020.0 mb 0.00 in0.0 mm 0.00 in0.0 mm 0.00 in0.0 mm
10:00 PM 80.1°F26.7°C 48.4°F9.1°C 33% 3.0 mph SE4.8 kmh SE 9.0 mph14.5 kmh 30.13 in1020.3 mb 0.00 in0.0 mm 0.00 in0.0 mm 0.00 in0.0 mm
10:05 PM 80.0°F26.7°C 46.6°F8.1°C 31% 3.0 mph ESE4.8 kmh ESE 9.0 mph14.5 kmh 30.13 in1020.3 mb 0.00 in0.0 mm 0.00 in0.0 mm 0.00 in0.0 mm
10:10 PM 79.8°F26.6°C 45.6°F7.6°C 30% 3.0 mph ESE4.8 kmh ESE 9.0 mph14.5 kmh 30.13 in1020.3 mb 0.00 in0.0 mm 0.00 in0.0 mm 0.00 in0.0 mm
10:15 PM 79.7°F26.5°C 43.7°F6.5°C 28% 3.0 mph ESE4.8 kmh ESE 10.0 mph16.1 kmh 30.13 in1020.3 mb 0.00 in0.0 mm 0.00 in0.0 mm 0.00 in0.0 mm
10:20 PM 79.5°F26.4°C 42.6°F5.9°C 27% 3.0 mph ESE4.8 kmh ESE 10.0 mph16.1 kmh 30.13 in1020.3 mb 0.00 in0.0 mm 0.00 in0.0 mm 0.00 in0.0 mm
10:25 PM 79.4°F26.3°C 41.5°F5.3°C 26% 2.0 mph ESE3.2 kmh ESE 7.0 mph11.3 kmh 30.13 in1020.3 mb 0.00 in0.0 mm 0.00 in0.0 mm 0.00 in0.0 mm
10:30 PM 79.1°F26.2°C 35.8°F2.1°C 21% 2.0 mph ESE3.2 kmh ESE 7.0 mph11.3 kmh 30.14 in1020.7 mb 0.00 in0.0 mm 0.00 in0.0 mm 0.00 in0.0 mm
10:35 PM 79.0°F26.1°C 31.9°F-0.1°C 18% 3.0 mph ESE4.8 kmh ESE 7.0 mph11.3 kmh 30.14 in1020.7 mb 0.00 in0.0 mm 0.00 in0.0 mm 0.00 in0.0 mm
10:40 PM 78.8°F26.0°C 30.3°F-0.9°C 17% 2.0 mph ESE3.2 kmh ESE 5.0 mph8.0 kmh 30.14 in1020.7 mb 0.00 in0.0 mm 0.00 in0.0 mm 0.00 in0.0 mm
10:45 PM 78.7°F25.9°C 27.1°F-2.7°C 15% 2.0 mph ESE3.2 kmh ESE 4.0 mph6.4 kmh 30.14 in1020.7 mb 0.00 in0.0 mm 0.00 in0.0 mm 0.00 in0.0 mm
10:50 PM 78.5°F25.8°C 17.4°F-8.1°C 10% 3.0 mph SE4.8 kmh SE 10.0 mph16.1 kmh 30.14 in1020.7 mb 0.00 in0.0 mm 0.00 in0.0 mm 0.00 in0.0 mm
10:55 PM 78.4°F25.8°C 12.2°F-11.0°C 8% 3.0 mph SE4.8 kmh SE 10.0 mph16.1 kmh 30.14 in1020.7 mb 0.00 in0.0 mm 0.00 in0.0 mm 0.00 in0.0 mm
11:00 PM 78.3°F25.7°C 5.7°F-14.6°C 6% 3.0 mph SE4.8 kmh SE 7.0 mph11.3 kmh 30.14 in1020.7 mb 0.00 in0.0 mm 0.00 in0.0 mm 0.00 in0.0 mm
11:05 PM 78.2°F25.7°C -3.1°F-19.5°C 4% 3.0 mph ESE4.8 kmh ESE 7.0 mph11.3 kmh 30.14 in1020.7 mb 0.00 in0.0 mm 0.00 in0.0 mm 0.00 in0.0 mm
11:10 PM 78.0°F25.6°C -30.4°F-34.7°C 1% 3.0 mph ESE4.8 kmh ESE 7.0 mph11.3 kmh 30.14 in1020.7 mb 0.00 in0.0 mm 0.00 in0.0 mm 0.00 in0.0 mm
11:15 PM 77.9°F25.5°C -30.4°F-34.7°C 0% 2.0 mph SE3.2 kmh SE 6.0 mph9.7 kmh 30.14 in1020.7 mb 0.00 in0.0 mm 0.00 in0.0 mm 0.00 in0.0 mm
11:20 PM 77.8°F25.4°C -30.4°F-34.7°C 0% 3.0 mph SE4.8 kmh SE 7.0 mph11.3 kmh 30.14 in1020.7 mb 0.00 in0.0 mm 0.00 in0.0 mm 0.00 in0.0 mm
11:25 PM 77.7°F25.4°C -30.4°F-34.7°C 0% 3.0 mph SE4.8 kmh SE 7.0 mph11.3 kmh 30.14 in1020.7 mb 0.00 in0.0 mm 0.00 in0.0 mm 0.00 in0.0 mm
11:30 PM 77.6°F25.3°C -30.4°F-34.7°C 0% 2.0 mph SE3.2 kmh SE 5.0 mph8.0 kmh 30.14 in1020.7 mb 0.00 in0.0 mm 0.00 in0.0 mm 0.00 in0.0 mm
11:35 PM 77.4°F25.2°C -30.4°F-34.7°C 0% 1.0 mph SE1.6 kmh SE 3.0 mph4.8 kmh 30.14 in1020.7 mb 0.00 in0.0 mm 0.00 in0.0 mm 0.00 in0.0 mm
11:40 PM 77.2°F25.1°C -30.4°F-34.7°C 0% 1.0 mph SE1.6 kmh SE 3.0 mph4.8 kmh 30.14 in1020.7 mb 0.00 in0.0 mm 0.00 in0.0 mm 0.00 in0.0 mm
11:45 PM 77.0°F25.0°C -30.4°F-34.7°C 0% 1.0 mph SE1.6 kmh SE 3.0 mph4.8 kmh 30.14 in1020.7 mb 0.00 in0.0 mm 0.00 in0.0 mm 0.00 in0.0 mm
11:50 PM 76.9°F24.9°C -30.4°F-34.7°C 0% 2.0 mph SE3.2 kmh SE 3.0 mph4.8 kmh 30.14 in1020.7 mb 0.00 in0.0 mm 0.00 in0.0 mm 0.00 in0.0 mm
11:55 PM 76.7°F24.8°C -30.4°F-34.7°C 0% 1.0 mph SE1.6 kmh SE 3.0 mph4.8 kmh 30.14 in1020.7 mb 0.00 in0.0 mm 0.00 in0.0 mm 0.00 in0.0 mm